sensor_id;sensor_type;location;lat;lon;timestamp;pressure;altitude;pressure_sealevel;temperature;humidity
53550;BME280;73079;52.914;-0.982;2023-10-13T00:01:25;100261.97;;;12.11;94.45
53550;BME280;73079;52.914;-0.982;2023-10-13T00:03:50;100257.63;;;12.03;94.12
53550;BME280;73079;52.914;-0.982;2023-10-13T00:06:19;100256.19;;;12.14;94.54
53550;BME280;73079;52.914;-0.982;2023-10-13T00:08:46;100249.53;;;12.03;95.39
53550;BME280;73079;52.914;-0.982;2023-10-13T00:11:12;100234.63;;;12.27;97.05
53550;BME280;73079;52.914;-0.982;2023-10-13T00:13:38;100232.16;;;12.19;96.83
53550;BME280;73079;52.914;-0.982;2023-10-13T00:16:22;100227.56;;;12.13;97.26
53550;BME280;73079;52.914;-0.982;2023-10-13T00:18:50;100220.94;;;12.22;97.93
53550;BME280;73079;52.914;-0.982;2023-10-13T00:21:20;100218.03;;;12.24;97.27
53550;BME280;73079;52.914;-0.982;2023-10-13T00:23:57;100207.91;;;12.32;97.36
53550;BME280;73079;52.914;-0.982;2023-10-13T00:26:26;100197.72;;;12.34;96.78
53550;BME280;73079;52.914;-0.982;2023-10-13T00:28:59;100191.97;;;12.17;98.09
53550;BME280;73079;52.914;-0.982;2023-10-13T00:31:36;100194.00;;;12.22;100.00
53550;BME280;73079;52.914;-0.982;2023-10-13T00:34:05;100182.22;;;12.30;100.00
53550;BME280;73079;52.914;-0.982;2023-10-13T00:36:38;100178.66;;;12.43;100.00
53550;BME280;73079;52.914;-0.982;2023-10-13T00:39:22;100176.38;;;12.46;100.00
53550;BME280;73079;52.914;-0.982;2023-10-13T00:41:49;100175.75;;;12.51;100.00
53550;BME280;73079;52.914;-0.982;2023-10-13T00:44:18;100174.09;;;12.63;100.00
53550;BME280;73079;52.914;-0.982;2023-10-13T00:46:50;100166.41;;;12.53;100.00
53550;BME280;73079;52.914;-0.982;2023-10-13T00:49:22;100155.03;;;12.58;100.00
53550;BME280;73079;52.914;-0.982;2023-10-13T00:51:48;100141.91;;;12.68;100.00
53550;BME280;73079;52.914;-0.982;2023-10-13T00:54:15;100131.78;;;12.70;100.00
53550;BME280;73079;52.914;-0.982;2023-10-13T00:56:46;100127.81;;;12.66;100.00
53550;BME280;73079;52.914;-0.982;2023-10-13T00:59:23;100120.72;;;12.79;100.00
53550;BME280;73079;52.914;-0.982;2023-10-13T01:01:51;100115.34;;;12.79;100.00
53550;BME280;73079;52.914;-0.982;2023-10-13T01:04:23;100102.25;;;12.89;100.00
53550;BME280;73079;52.914;-0.982;2023-10-13T01:06:53;100095.41;;;12.86;100.00
53550;BME280;73079;52.914;-0.982;2023-10-13T01:09:18;100083.56;;;12.87;100.00
53550;BME280;73079;52.914;-0.982;2023-10-13T01:11:46;100076.44;;;13.06;100.00
53550;BME280;73079;52.914;-0.982;2023-10-13T01:14:14;100072.34;;;12.97;100.00
53550;BME280;73079;52.914;-0.982;2023-10-13T01:16:44;100074.84;;;12.92;100.00
53550;BME280;73079;52.914;-0.982;2023-10-13T01:19:09;100072.41;;;12.84;100.00
53550;BME280;73079;52.914;-0.982;2023-10-13T01:21:39;100057.63;;;12.93;100.00
53550;BME280;73079;52.914;-0.982;2023-10-13T01:24:09;100063.75;;;13.13;100.00
53550;BME280;73079;52.914;-0.982;2023-10-13T01:26:40;100054.06;;;12.99;100.00
53550;BME280;73079;52.914;-0.982;2023-10-13T01:29:08;100036.97;;;13.12;100.00
53550;BME280;73079;52.914;-0.982;2023-10-13T01:31:40;100027.00;;;13.12;100.00
53550;BME280;73079;52.914;-0.982;2023-10-13T01:34:13;100021.44;;;13.07;100.00
53550;BME280;73079;52.914;-0.982;2023-10-13T01:36:47;100017.50;;;13.10;100.00
53550;BME280;73079;52.914;-0.982;2023-10-13T01:39:19;99995.75;;;13.05;100.00
53550;BME280;73079;52.914;-0.982;2023-10-13T01:41:48;99977.00;;;13.17;100.00
53550;BME280;73079;52.914;-0.982;2023-10-13T01:44:20;99969.22;;;13.27;100.00
53550;BME280;73079;52.914;-0.982;2023-10-13T01:46:46;99957.66;;;13.20;100.00
53550;BME280;73079;52.914;-0.982;2023-10-13T01:49:13;99958.03;;;13.23;100.00
53550;BME280;73079;52.914;-0.982;2023-10-13T01:51:40;99958.44;;;13.27;100.00
53550;BME280;73079;52.914;-0.982;2023-10-13T01:54:06;99956.78;;;13.26;100.00
53550;BME280;73079;52.914;-0.982;2023-10-13T01:56:39;99952.44;;;13.25;100.00
53550;BME280;73079;52.914;-0.982;2023-10-13T01:59:11;99942.25;;;13.27;100.00
53550;BME280;73079;52.914;-0.982;2023-10-13T02:01:37;99931.38;;;13.40;100.00
53550;BME280;73079;52.914;-0.982;2023-10-13T02:04:04;99925.59;;;13.37;100.00
53550;BME280;73079;52.914;-0.982;2023-10-13T02:06:33;99923.94;;;13.36;100.00
53550;BME280;73079;52.914;-0.982;2023-10-13T02:09:00;99911.88;;;13.38;100.00
53550;BME280;73079;52.914;-0.982;2023-10-13T02:11:36;99904.78;;;13.44;100.00
53550;BME280;73079;52.914;-0.982;2023-10-13T02:14:04;99897.72;;;13.43;100.00
53550;BME280;73079;52.914;-0.982;2023-10-13T02:16:30;99881.84;;;13.53;100.00
53550;BME280;73079;52.914;-0.982;2023-10-13T02:18:56;99877.13;;;13.67;100.00
53550;BME280;73079;52.914;-0.982;2023-10-13T02:21:23;99878.84;;;13.61;100.00
53550;BME280;73079;52.914;-0.982;2023-10-13T02:23:56;99862.13;;;13.71;100.00
53550;BME280;73079;52.914;-0.982;2023-10-13T02:26:26;99844.22;;;13.58;100.00
53550;BME280;73079;52.914;-0.982;2023-10-13T02:29:05;99838.59;;;13.60;100.00
53550;BME280;73079;52.914;-0.982;2023-10-13T02:31:39;99828.09;;;13.70;100.00
53550;BME280;73079;52.914;-0.982;2023-10-13T02:34:06;99810.53;;;13.79;100.00
53550;BME280;73079;52.914;-0.982;2023-10-13T02:36:35;99807.97;;;13.66;100.00
53550;BME280;73079;52.914;-0.982;2023-10-13T02:39:03;99800.88;;;13.72;100.00
53550;BME280;73079;52.914;-0.982;2023-10-13T02:41:33;99790.75;;;13.67;100.00
53550;BME280;73079;52.914;-0.982;2023-10-13T02:44:03;99777.84;;;13.69;100.00
53550;BME280;73079;52.914;-0.982;2023-10-13T02:46:34;99773.75;;;13.66;100.00
53550;BME280;73079;52.914;-0.982;2023-10-13T02:49:05;99770.34;;;13.71;100.00
53550;BME280;73079;52.914;-0.982;2023-10-13T02:51:37;99751.06;;;13.67;100.00
53550;BME280;73079;52.914;-0.982;2023-10-13T02:54:03;99747.97;;;13.82;100.00
53550;BME280;73079;52.914;-0.982;2023-10-13T02:56:34;99737.78;;;13.84;100.00
53550;BME280;73079;52.914;-0.982;2023-10-13T02:59:01;99725.59;;;13.94;100.00
53550;BME280;73079;52.914;-0.982;2023-10-13T03:01:33;99722.63;;;13.83;100.00
53550;BME280;73079;52.914;-0.982;2023-10-13T03:04:03;99717.56;;;13.75;100.00
53550;BME280;73079;52.914;-0.982;2023-10-13T03:06:29;99713.66;;;13.71;100.00
53550;BME280;73079;52.914;-0.982;2023-10-13T03:08:59;99700.66;;;13.80;100.00
53550;BME280;73079;52.914;-0.982;2023-10-13T03:11:43;99689.53;;;13.88;100.00
53550;BME280;73079;52.914;-0.982;2023-10-13T03:14:14;99676.72;;;13.83;100.00
53550;BME280;73079;52.914;-0.982;2023-10-13T03:16:51;99666.63;;;13.91;100.00
53550;BME280;73079;52.914;-0.982;2023-10-13T03:19:17;99655.63;;;14.04;100.00
53550;BME280;73079;52.914;-0.982;2023-10-13T03:21:47;99647.16;;;14.00;100.00
53550;BME280;73079;52.914;-0.982;2023-10-13T03:24:23;99642.34;;;14.02;100.00
53550;BME280;73079;52.914;-0.982;2023-10-13T03:26:59;99638.47;;;13.86;100.00
53550;BME280;73079;52.914;-0.982;2023-10-13T03:29:25;99634.94;;;13.98;100.00
53550;BME280;73079;52.914;-0.982;2023-10-13T03:31:57;99627.19;;;13.90;100.00
53550;BME280;73079;52.914;-0.982;2023-10-13T03:34:32;99621.44;;;13.86;100.00
53550;BME280;73079;52.914;-0.982;2023-10-13T03:37:00;99613.13;;;13.87;100.00
53550;BME280;73079;52.914;-0.982;2023-10-13T03:39:36;99607.94;;;13.86;100.00
53550;BME280;73079;52.914;-0.982;2023-10-13T03:42:01;99600.06;;;13.96;100.00
53550;BME280;73079;52.914;-0.982;2023-10-13T03:44:31;99585.53;;;13.97;100.00
53550;BME280;73079;52.914;-0.982;2023-10-13T03:46:58;99594.09;;;13.82;100.00
53550;BME280;73079;52.914;-0.982;2023-10-13T03:49:35;99587.41;;;13.97;100.00
53550;BME280;73079;52.914;-0.982;2023-10-13T03:52:04;99586.13;;;13.87;100.00
53550;BME280;73079;52.914;-0.982;2023-10-13T03:54:31;99568.25;;;14.10;100.00
53550;BME280;73079;52.914;-0.982;2023-10-13T03:57:00;99555.59;;;13.99;100.00
53550;BME280;73079;52.914;-0.982;2023-10-13T03:59:30;99548.78;;;13.84;100.00
53550;BME280;73079;52.914;-0.982;2023-10-13T04:02:02;99551.00;;;13.87;100.00
53550;BME280;73079;52.914;-0.982;2023-10-13T04:04:31;99550.66;;;13.96;100.00
53550;BME280;73079;52.914;-0.982;2023-10-13T04:07:03;99535.72;;;14.05;100.00
53550;BME280;73079;52.914;-0.982;2023-10-13T04:09:35;99523.53;;;13.91;100.00
53550;BME280;73079;52.914;-0.982;2023-10-13T04:12:13;99521.28;;;14.11;100.00
53550;BME280;73079;52.914;-0.982;2023-10-13T04:15:06;99522.94;;;13.88;100.00
53550;BME280;73079;52.914;-0.982;2023-10-13T04:17:36;99506.84;;;13.94;100.00
53550;BME280;73079;52.914;-0.982;2023-10-13T04:20:11;99504.38;;;13.92;100.00
53550;BME280;73079;52.914;-0.982;2023-10-13T04:22:38;99490.31;;;14.02;100.00
53550;BME280;73079;52.914;-0.982;2023-10-13T04:25:14;99481.94;;;14.15;100.00
53550;BME280;73079;52.914;-0.982;2023-10-13T04:27:59;99489.69;;;14.00;100.00
53550;BME280;73079;52.914;-0.982;2023-10-13T04:30:40;99465.88;;;13.97;100.00
53550;BME280;73079;52.914;-0.982;2023-10-13T04:33:20;99459.75;;;14.13;100.00
53550;BME280;73079;52.914;-0.982;2023-10-13T04:36:00;99454.34;;;14.13;100.00
53550;BME280;73079;52.914;-0.982;2023-10-13T04:38:26;99449.31;;;14.05;100.00
53550;BME280;73079;52.914;-0.982;2023-10-13T04:41:00;99447.69;;;14.04;100.00
53550;BME280;73079;52.914;-0.982;2023-10-13T04:43:27;99436.97;;;14.09;100.00
53550;BME280;73079;52.914;-0.982;2023-10-13T04:45:59;99433.00;;;14.00;100.00
53550;BME280;73079;52.914;-0.982;2023-10-13T04:48:41;99429.25;;;14.01;100.00
53550;BME280;73079;52.914;-0.982;2023-10-13T04:51:12;99424.88;;;14.00;100.00
53550;BME280;73079;52.914;-0.982;2023-10-13T04:53:59;99404.34;;;14.11;100.00
53550;BME280;73079;52.914;-0.982;2023-10-13T04:56:27;99399.41;;;14.07;100.00
53550;BME280;73079;52.914;-0.982;2023-10-13T04:59:13;99398.94;;;14.11;100.00
53550;BME280;73079;52.914;-0.982;2023-10-13T05:02:01;99378.72;;;14.13;100.00
53550;BME280;73079;52.914;-0.982;2023-10-13T05:04:48;99371.19;;;14.15;100.00
53550;BME280;73079;52.914;-0.982;2023-10-13T05:07:32;99369.47;;;14.09;100.00
53550;BME280;73079;52.914;-0.982;2023-10-13T05:10:16;99372.41;;;14.07;100.00
53550;BME280;73079;52.914;-0.982;2023-10-13T05:13:01;99367.91;;;14.13;100.00
53550;BME280;73079;52.914;-0.982;2023-10-13T05:15:47;99356.91;;;14.03;100.00
53550;BME280;73079;52.914;-0.982;2023-10-13T05:18:32;99336.41;;;14.19;100.00
53550;BME280;73079;52.914;-0.982;2023-10-13T05:21:18;99342.72;;;14.24;100.00
53550;BME280;73079;52.914;-0.982;2023-10-13T05:24:02;99326.34;;;14.14;100.00
53550;BME280;73079;52.914;-0.982;2023-10-13T05:26:47;99308.72;;;14.12;100.00
53550;BME280;73079;52.914;-0.982;2023-10-13T05:29:31;99313.75;;;14.20;100.00
53550;BME280;73079;52.914;-0.982;2023-10-13T05:32:16;99300.50;;;14.18;100.00
53550;BME280;73079;52.914;-0.982;2023-10-13T05:35:00;99298.66;;;14.07;100.00
53550;BME280;73079;52.914;-0.982;2023-10-13T05:37:46;99300.28;;;14.08;100.00
53550;BME280;73079;52.914;-0.982;2023-10-13T05:40:31;99292.66;;;14.05;100.00
53550;BME280;73079;52.914;-0.982;2023-10-13T05:43:15;99281.75;;;14.00;100.00
53550;BME280;73079;52.914;-0.982;2023-10-13T05:46:01;99275.22;;;13.96;100.00
53550;BME280;73079;52.914;-0.982;2023-10-13T05:49:02;99266.78;;;13.92;100.00
53550;BME280;73079;52.914;-0.982;2023-10-13T05:51:37;99270.72;;;14.01;100.00
53550;BME280;73079;52.914;-0.982;2023-10-13T05:54:14;99268.19;;;13.95;100.00
53550;BME280;73079;52.914;-0.982;2023-10-13T05:56:39;99266.66;;;13.99;100.00
53550;BME280;73079;52.914;-0.982;2023-10-13T05:59:24;99274.16;;;13.97;100.00
53550;BME280;73079;52.914;-0.982;2023-10-13T06:02:09;99259.22;;;14.06;100.00
53550;BME280;73079;52.914;-0.982;2023-10-13T06:04:53;99245.13;;;14.04;100.00
53550;BME280;73079;52.914;-0.982;2023-10-13T06:07:38;99238.25;;;14.13;100.00
53550;BME280;73079;52.914;-0.982;2023-10-13T06:10:23;99227.47;;;14.13;100.00
53550;BME280;73079;52.914;-0.982;2023-10-13T06:13:08;99221.88;;;14.03;100.00
53550;BME280;73079;52.914;-0.982;2023-10-13T06:15:52;99225.41;;;14.03;100.00
53550;BME280;73079;52.914;-0.982;2023-10-13T06:18:50;99227.38;;;14.08;100.00
53550;BME280;73079;52.914;-0.982;2023-10-13T06:21:35;99233.16;;;14.00;100.00
53550;BME280;73079;52.914;-0.982;2023-10-13T06:24:19;99236.84;;;13.94;100.00
53550;BME280;73079;52.914;-0.982;2023-10-13T06:27:05;99237.69;;;14.11;100.00
53550;BME280;73079;52.914;-0.982;2023-10-13T06:29:49;99236.13;;;13.98;100.00
53550;BME280;73079;52.914;-0.982;2023-10-13T06:32:15;99231.06;;;14.02;100.00
53550;BME280;73079;52.914;-0.982;2023-10-13T06:34:41;99220.66;;;13.94;100.00
53550;BME280;73079;52.914;-0.982;2023-10-13T06:37:10;99215.00;;;13.95;100.00
53550;BME280;73079;52.914;-0.982;2023-10-13T06:39:48;99214.09;;;13.90;100.00
53550;BME280;73079;52.914;-0.982;2023-10-13T06:42:16;99213.69;;;13.98;100.00
53550;BME280;73079;52.914;-0.982;2023-10-13T06:44:42;99214.69;;;13.92;100.00
53550;BME280;73079;52.914;-0.982;2023-10-13T06:47:10;99215.16;;;13.88;100.00
53550;BME280;73079;52.914;-0.982;2023-10-13T06:49:37;99221.47;;;13.94;100.00
53550;BME280;73079;52.914;-0.982;2023-10-13T06:52:04;99212.06;;;13.97;100.00
53550;BME280;73079;52.914;-0.982;2023-10-13T06:54:32;99198.00;;;13.95;100.00
53550;BME280;73079;52.914;-0.982;2023-10-13T06:56:59;99208.28;;;13.98;100.00
53550;BME280;73079;52.914;-0.982;2023-10-13T06:59:26;99215.81;;;13.96;100.00
53550;BME280;73079;52.914;-0.982;2023-10-13T07:01:52;99214.25;;;14.00;100.00
53550;BME280;73079;52.914;-0.982;2023-10-13T07:04:18;99212.63;;;13.99;100.00
53550;BME280;73079;52.914;-0.982;2023-10-13T07:06:44;99202.41;;;14.01;100.00
53550;BME280;73079;52.914;-0.982;2023-10-13T07:09:20;99197.00;;;14.01;100.00
53550;BME280;73079;52.914;-0.982;2023-10-13T07:12:02;99202.88;;;13.98;100.00
53550;BME280;73079;52.914;-0.982;2023-10-13T07:14:50;99198.06;;;14.00;100.00
53550;BME280;73079;52.914;-0.982;2023-10-13T07:17:19;99210.28;;;14.02;100.00
53550;BME280;73079;52.914;-0.982;2023-10-13T07:19:52;99208.63;;;14.01;100.00
53550;BME280;73079;52.914;-0.982;2023-10-13T07:22:19;99212.97;;;14.02;100.00
53550;BME280;73079;52.914;-0.982;2023-10-13T07:24:45;99212.72;;;14.04;100.00
53550;BME280;73079;52.914;-0.982;2023-10-13T07:27:14;99217.56;;;14.19;100.00
53550;BME280;73079;52.914;-0.982;2023-10-13T07:29:50;99208.22;;;14.10;100.00
53550;BME280;73079;52.914;-0.982;2023-10-13T07:32:23;99210.03;;;14.21;100.00
53550;BME280;73079;52.914;-0.982;2023-10-13T07:34:52;99210.13;;;14.09;100.00
53550;BME280;73079;52.914;-0.982;2023-10-13T07:37:21;99218.88;;;14.16;100.00
53550;BME280;73079;52.914;-0.982;2023-10-13T07:39:51;99218.78;;;14.11;100.00
53550;BME280;73079;52.914;-0.982;2023-10-13T07:42:16;99214.53;;;14.15;100.00
53550;BME280;73079;52.914;-0.982;2023-10-13T07:44:45;99211.91;;;14.20;100.00
53550;BME280;73079;52.914;-0.982;2023-10-13T07:47:15;99220.59;;;14.22;100.00
53550;BME280;73079;52.914;-0.982;2023-10-13T07:49:43;99213.66;;;14.26;100.00
53550;BME280;73079;52.914;-0.982;2023-10-13T07:52:10;99223.63;;;14.26;100.00
53550;BME280;73079;52.914;-0.982;2023-10-13T07:54:46;99225.03;;;14.29;100.00
53550;BME280;73079;52.914;-0.982;2023-10-13T07:57:25;99224.13;;;14.40;100.00
53550;BME280;73079;52.914;-0.982;2023-10-13T07:59:55;99236.97;;;14.33;100.00
53550;BME280;73079;52.914;-0.982;2023-10-13T08:02:38;99237.38;;;14.41;100.00
53550;BME280;73079;52.914;-0.982;2023-10-13T08:05:14;99236.59;;;14.41;100.00
53550;BME280;73079;52.914;-0.982;2023-10-13T08:07:52;99243.59;;;14.42;100.00
53550;BME280;73079;52.914;-0.982;2023-10-13T08:10:20;99241.31;;;14.51;100.00
53550;BME280;73079;52.914;-0.982;2023-10-13T08:12:51;99248.13;;;14.53;100.00
53550;BME280;73079;52.914;-0.982;2023-10-13T08:15:20;99225.53;;;14.59;100.00
53550;BME280;73079;52.914;-0.982;2023-10-13T08:17:59;99239.50;;;14.56;100.00
53550;BME280;73079;52.914;-0.982;2023-10-13T08:20:32;99252.88;;;14.46;100.00
53550;BME280;73079;52.914;-0.982;2023-10-13T08:23:04;99237.16;;;14.43;100.00
53550;BME280;73079;52.914;-0.982;2023-10-13T08:25:38;99235.00;;;14.45;100.00
53550;BME280;73079;52.914;-0.982;2023-10-13T08:28:23;99243.13;;;14.45;100.00
53550;BME280;73079;52.914;-0.982;2023-10-13T08:31:04;99245.34;;;14.48;100.00
53550;BME280;73079;52.914;-0.982;2023-10-13T08:33:41;99251.41;;;14.55;100.00
53550;BME280;73079;52.914;-0.982;2023-10-13T08:36:12;99266.66;;;14.61;100.00
53550;BME280;73079;52.914;-0.982;2023-10-13T08:38:53;99279.00;;;14.57;100.00
53550;BME280;73079;52.914;-0.982;2023-10-13T08:41:21;99261.50;;;14.77;100.00
53550;BME280;73079;52.914;-0.982;2023-10-13T08:43:49;99282.03;;;14.78;100.00
53550;BME280;73079;52.914;-0.982;2023-10-13T08:46:16;99274.91;;;14.72;100.00
53550;BME280;73079;52.914;-0.982;2023-10-13T08:48:58;99281.53;;;14.81;100.00
53550;BME280;73079;52.914;-0.982;2023-10-13T08:51:34;99281.47;;;14.76;100.00
53550;BME280;73079;52.914;-0.982;2023-10-13T08:54:12;99294.50;;;14.79;100.00
53550;BME280;73079;52.914;-0.982;2023-10-13T08:56:46;99291.22;;;14.77;100.00
53550;BME280;73079;52.914;-0.982;2023-10-13T08:59:22;99283.69;;;14.79;100.00
53550;BME280;73079;52.914;-0.982;2023-10-13T09:01:48;99285.16;;;14.70;100.00
53550;BME280;73079;52.914;-0.982;2023-10-13T09:04:26;99293.38;;;14.75;100.00
53550;BME280;73079;52.914;-0.982;2023-10-13T09:07:01;99291.97;;;14.72;100.00
53550;BME280;73079;52.914;-0.982;2023-10-13T09:09:34;99294.34;;;14.69;100.00
53550;BME280;73079;52.914;-0.982;2023-10-13T09:12:13;99293.03;;;14.71;100.00
53550;BME280;73079;52.914;-0.982;2023-10-13T09:14:40;99292.94;;;14.83;100.00
53550;BME280;73079;52.914;-0.982;2023-10-13T09:17:23;99296.56;;;14.72;100.00
53550;BME280;73079;52.914;-0.982;2023-10-13T09:20:00;99304.81;;;14.82;100.00
53550;BME280;73079;52.914;-0.982;2023-10-13T09:22:47;99295.16;;;15.03;100.00
53550;BME280;73079;52.914;-0.982;2023-10-13T09:25:22;99298.16;;;15.07;100.00
53550;BME280;73079;52.914;-0.982;2023-10-13T09:27:48;99305.28;;;15.13;100.00
53550;BME280;73079;52.914;-0.982;2023-10-13T09:30:18;99301.78;;;14.95;100.00
53550;BME280;73079;52.914;-0.982;2023-10-13T09:32:46;99305.91;;;15.20;100.00
53550;BME280;73079;52.914;-0.982;2023-10-13T09:35:17;99304.31;;;15.19;100.00
53550;BME280;73079;52.914;-0.982;2023-10-13T09:37:44;99300.66;;;15.30;100.00
53550;BME280;73079;52.914;-0.982;2023-10-13T09:40:15;99295.59;;;15.17;100.00
53550;BME280;73079;52.914;-0.982;2023-10-13T09:43:00;99293.97;;;15.16;100.00
53550;BME280;73079;52.914;-0.982;2023-10-13T09:45:31;99305.75;;;15.10;100.00
53550;BME280;73079;52.914;-0.982;2023-10-13T09:48:31;99312.41;;;15.19;100.00
53550;BME280;73079;52.914;-0.982;2023-10-13T09:51:01;99309.44;;;15.20;100.00
53550;BME280;73079;52.914;-0.982;2023-10-13T09:53:30;99318.56;;;15.14;100.00
53550;BME280;73079;52.914;-0.982;2023-10-13T09:56:02;99324.13;;;15.25;100.00
53550;BME280;73079;52.914;-0.982;2023-10-13T09:58:45;99315.31;;;15.34;100.00
53550;BME280;73079;52.914;-0.982;2023-10-13T10:01:17;99322.31;;;15.30;100.00
53550;BME280;73079;52.914;-0.982;2023-10-13T10:04:06;99329.41;;;15.36;100.00
53550;BME280;73079;52.914;-0.982;2023-10-13T10:06:38;99331.69;;;15.45;100.00
53550;BME280;73079;52.914;-0.982;2023-10-13T10:09:11;99323.72;;;15.55;100.00
53550;BME280;73079;52.914;-0.982;2023-10-13T10:12:06;99314.44;;;15.51;100.00
53550;BME280;73079;52.914;-0.982;2023-10-13T10:15:01;99321.72;;;15.67;100.00
53550;BME280;73079;52.914;-0.982;2023-10-13T10:17:39;99338.13;;;15.77;100.00
53550;BME280;73079;52.914;-0.982;2023-10-13T10:20:06;99336.28;;;15.83;100.00
53550;BME280;73079;52.914;-0.982;2023-10-13T10:22:41;99342.94;;;15.98;100.00
53550;BME280;73079;52.914;-0.982;2023-10-13T10:25:13;99354.03;;;15.96;100.00
53550;BME280;73079;52.914;-0.982;2023-10-13T10:27:55;99343.38;;;15.67;100.00
53550;BME280;73079;52.914;-0.982;2023-10-13T10:30:24;99346.28;;;15.83;100.00
53550;BME280;73079;52.914;-0.982;2023-10-13T10:32:54;99342.81;;;15.87;100.00
53550;BME280;73079;52.914;-0.982;2023-10-13T10:35:25;99347.75;;;15.90;100.00
53550;BME280;73079;52.914;-0.982;2023-10-13T10:38:07;99355.66;;;15.97;100.00
53550;BME280;73079;52.914;-0.982;2023-10-13T10:40:49;99348.22;;;16.09;100.00
53550;BME280;73079;52.914;-0.982;2023-10-13T10:43:17;99356.34;;;16.09;100.00
53550;BME280;73079;52.914;-0.982;2023-10-13T10:45:46;99364.75;;;16.08;100.00
53550;BME280;73079;52.914;-0.982;2023-10-13T10:48:12;99366.13;;;16.10;100.00
53550;BME280;73079;52.914;-0.982;2023-10-13T10:50:43;99369.84;;;16.04;100.00
53550;BME280;73079;52.914;-0.982;2023-10-13T10:53:10;99371.41;;;16.00;100.00
53550;BME280;73079;52.914;-0.982;2023-10-13T10:55:36;99372.91;;;16.13;100.00
53550;BME280;73079;52.914;-0.982;2023-10-13T10:58:03;99377.53;;;16.12;100.00
53550;BME280;73079;52.914;-0.982;2023-10-13T11:00:32;99372.41;;;16.16;100.00
53550;BME280;73079;52.914;-0.982;2023-10-13T11:03:11;99368.81;;;16.10;100.00
53550;BME280;73079;52.914;-0.982;2023-10-13T11:05:44;99373.69;;;16.08;100.00
53550;BME280;73079;52.914;-0.982;2023-10-13T11:08:22;99373.69;;;16.08;100.00
53550;BME280;73079;52.914;-0.982;2023-10-13T11:10:57;99364.44;;;16.04;100.00
53550;BME280;73079;52.914;-0.982;2023-10-13T11:13:23;99370.97;;;16.08;100.00
53550;BME280;73079;52.914;-0.982;2023-10-13T11:15:48;99378.16;;;15.98;100.00
53550;BME280;73079;52.914;-0.982;2023-10-13T11:18:16;99378.28;;;15.86;100.00
53550;BME280;73079;52.914;-0.982;2023-10-13T11:20:46;99368.63;;;15.95;100.00
53550;BME280;73079;52.914;-0.982;2023-10-13T11:23:15;99368.94;;;15.99;100.00
53550;BME280;73079;52.914;-0.982;2023-10-13T11:25:42;99370.03;;;15.98;100.00
53550;BME280;73079;52.914;-0.982;2023-10-13T11:28:11;99376.03;;;16.00;100.00
53550;BME280;73079;52.914;-0.982;2023-10-13T11:30:44;99358.19;;;16.04;100.00
53550;BME280;73079;52.914;-0.982;2023-10-13T11:33:17;99359.03;;;16.04;100.00
53550;BME280;73079;52.914;-0.982;2023-10-13T11:35:49;99351.94;;;16.03;100.00
53550;BME280;73079;52.914;-0.982;2023-10-13T11:38:18;99354.47;;;15.88;100.00
53550;BME280;73079;52.914;-0.982;2023-10-13T11:40:59;99356.88;;;15.84;100.00
53550;BME280;73079;52.914;-0.982;2023-10-13T11:43:34;99367.16;;;16.04;100.00
53550;BME280;73079;52.914;-0.982;2023-10-13T11:46:10;99357.56;;;16.19;100.00
53550;BME280;73079;52.914;-0.982;2023-10-13T11:48:36;99349.13;;;16.20;100.00
53550;BME280;73079;52.914;-0.982;2023-10-13T11:51:03;99350.03;;;16.26;100.00
53550;BME280;73079;52.914;-0.982;2023-10-13T11:53:34;99354.84;;;16.19;100.00
53550;BME280;73079;52.914;-0.982;2023-10-13T11:56:02;99348.50;;;16.35;100.00
53550;BME280;73079;52.914;-0.982;2023-10-13T11:58:37;99347.06;;;16.27;100.00
53550;BME280;73079;52.914;-0.982;2023-10-13T12:01:03;99351.88;;;16.47;100.00
53550;BME280;73079;52.914;-0.982;2023-10-13T12:03:38;99351.66;;;16.27;100.00
53550;BME280;73079;52.914;-0.982;2023-10-13T12:06:23;99356.78;;;16.23;100.00
53550;BME280;73079;52.914;-0.982;2023-10-13T12:09:01;99350.66;;;16.33;100.00
53550;BME280;73079;52.914;-0.982;2023-10-13T12:11:48;99355.44;;;16.53;100.00
53550;BME280;73079;52.914;-0.982;2023-10-13T12:14:17;99358.22;;;16.31;100.00
53550;BME280;73079;52.914;-0.982;2023-10-13T12:16:45;99366.53;;;16.24;100.00
53550;BME280;73079;52.914;-0.982;2023-10-13T12:19:22;99365.25;;;16.32;100.00
53550;BME280;73079;52.914;-0.982;2023-10-13T12:21:55;99376.00;;;16.22;100.00
53550;BME280;73079;52.914;-0.982;2023-10-13T12:24:21;99369.63;;;16.11;100.00
53550;BME280;73079;52.914;-0.982;2023-10-13T12:27:06;99369.16;;;15.92;100.00
53550;BME280;73079;52.914;-0.982;2023-10-13T12:29:45;99363.47;;;15.93;100.00
53550;BME280;73079;52.914;-0.982;2023-10-13T12:32:12;99375.78;;;16.01;100.00
53550;BME280;73079;52.914;-0.982;2023-10-13T12:34:39;99363.91;;;16.07;100.00
53550;BME280;73079;52.914;-0.982;2023-10-13T12:37:23;99375.50;;;16.25;100.00
53550;BME280;73079;52.914;-0.982;2023-10-13T12:40:16;99361.59;;;16.43;100.00
53550;BME280;73079;52.914;-0.982;2023-10-13T12:43:03;99354.63;;;16.25;100.00
53550;BME280;73079;52.914;-0.982;2023-10-13T12:45:49;99358.25;;;16.09;100.00
53550;BME280;73079;52.914;-0.982;2023-10-13T12:48:35;99370.66;;;15.83;100.00
53550;BME280;73079;52.914;-0.982;2023-10-13T12:51:20;99363.44;;;15.71;100.00
53550;BME280;73079;52.914;-0.982;2023-10-13T12:54:09;99370.19;;;15.69;100.00
53550;BME280;73079;52.914;-0.982;2023-10-13T12:56:43;99370.94;;;15.64;100.00
53550;BME280;73079;52.914;-0.982;2023-10-13T12:59:10;99370.03;;;15.75;100.00
53550;BME280;73079;52.914;-0.982;2023-10-13T13:01:39;99367.66;;;15.62;100.00
53550;BME280;73079;52.914;-0.982;2023-10-13T13:04:07;99366.19;;;15.54;100.00
53550;BME280;73079;52.914;-0.982;2023-10-13T13:06:37;99370.16;;;15.47;100.00
53550;BME280;73079;52.914;-0.982;2023-10-13T13:09:05;99373.47;;;15.32;100.00
53550;BME280;73079;52.914;-0.982;2023-10-13T13:11:35;99377.88;;;15.38;100.00